This is the latest recevied weather packets stored in our database for station/object EA3BNF-1. If no packets are shown the sender has not sent any weather packets the latest 1 day(s).
| Time | Temp. | Humidity | Pressure | Rain* | Wind** | Luminosity | Snow |
|---|---|---|---|---|---|---|---|
| 1778091595 | 20° C | 59% | 1011.2 hPa | - | - | - | - |
| 1778090940 | 20° C | 59% | 1011 hPa | - | - | - | - |
| 1778089628 | 21.11° C | 56% | 1010.9 hPa | - | - | - | - |
| 1778087932 | 21.67° C | 56% | 1010.8 hPa | - | - | - | - |
| 1778087276 | 21.67° C | 54% | 1010.7 hPa | - | - | - | - |
| 1778086621 | 21.67° C | 55% | 1010.7 hPa | - | - | - | - |
| 1778085965 | 21.67° C | 55% | 1010.5 hPa | - | - | - | - |
| 1778085309 | 21.67° C | 54% | 1010.4 hPa | - | - | - | - |
| 1778083998 | 21.67° C | 54% | 1010.4 hPa | - | - | - | - |
| 1778082031 | 22.22° C | 54% | 1010.5 hPa | - | - | - | - |
| 1778080720 | 21.67° C | 54% | 1010.6 hPa | - | - | - | - |
| 1778080064 | 21.67° C | 53% | 1010.7 hPa | - | - | - | - |
| 1778078753 | 21.67° C | 53% | 1010.9 hPa | - | - | - | - |
| 1778078097 | 21.67° C | 52% | 1010.9 hPa | - | - | - | - |
| 1778077442 | 21.67° C | 51% | 1011 hPa | - | - | - | - |
| 1778076786 | 21.67° C | 52% | 1011.2 hPa | - | - | - | - |
| 1778076130 | 21.11° C | 53% | 1011.3 hPa | - | - | - | - |
| 1778074163 | 21.11° C | 52% | 1011.6 hPa | - | - | - | - |
| 1778073508 | 21.11° C | 51% | 1011.7 hPa | - | - | - | - |
| 1778071541 | 20.56° C | 53% | 1011.9 hPa | - | - | - | - |
| 1778066296 | 19.44° C | 54% | 1012.4 hPa | - | - | - | - |
| 1778064985 | 19.44° C | 54% | 1012.5 hPa | - | - | - | - |
| 1778063018 | 18.89° C | 53% | 1012.7 hPa | - | - | - | - |
| 1778061051 | 18.33° C | 55% | 1013 hPa | - | - | - | - |
| 1778060395 | 18.33° C | 55% | 1012.9 hPa | - | - | - | - |
* Rain since midnight (hover to see other rain measurements)
** Current wind speed in m/s (hover to see current wind gust speed)